Time;durP1;ratioP1;P1;durP2;ratioP2;P2;SDS_P1;SDS_P2;PMS_P1;PMS_P2;Temp;Humidity;BMP_temperature;BMP_pressure;BME280_temperature;BME280_humidity;BME280_pressure;Samples;Min_cycle;Max_cycle;Signal;HPM_P1;HPM_P2
2023/10/31 00:01:21;;;;;;;1999.90;999.90;;;10.20;99.90;;;;;;5053596;28;20079;-69
2023/10/31 00:03:46;;;;;;;1999.90;999.90;;;10.20;99.90;;;;;;5052281;28;20025;-69
2023/10/31 00:06:12;;;;;;;1999.90;999.90;;;10.20;99.90;;;;;;5051770;28;20059;-69
2023/10/31 00:08:38;;;;;;;1999.90;999.90;;;10.20;99.90;;;;;;5050422;28;20029;-88
2023/10/31 00:11:04;;;;;;;1999.90;999.90;;;10.20;99.90;;;;;;5053556;28;20017;-69
2023/10/31 00:13:29;;;;;;;1999.90;999.90;;;10.10;99.90;;;;;;5050680;28;20327;-68
2023/10/31 00:15:55;;;;;;;1999.90;999.90;;;10.20;99.90;;;;;;5053511;28;20112;-69
2023/10/31 00:18:21;;;;;;;1999.90;999.90;;;10.20;99.90;;;;;;5044291;28;20031;-69
2023/10/31 00:20:47;;;;;;;1999.90;999.90;;;10.20;99.90;;;;;;5044426;28;20036;-69
2023/10/31 00:23:13;;;;;;;1999.90;999.90;;;10.20;99.90;;;;;;5041007;28;20439;-69
2023/10/31 00:25:39;;;;;;;1999.90;999.90;;;10.20;99.90;;;;;;5048646;28;20119;-83
2023/10/31 00:28:05;;;;;;;1999.90;999.90;;;10.20;99.90;;;;;;5042331;28;20155;-69
2023/10/31 00:30:30;;;;;;;1999.90;999.90;;;10.20;99.90;;;;;;5046394;28;20021;-69
2023/10/31 00:32:56;;;;;;;1999.90;999.90;;;10.20;99.90;;;;;;5042959;28;20424;-69
2023/10/31 00:35:22;;;;;;;1999.90;999.90;;;10.20;99.90;;;;;;5048361;28;20029;-83
2023/10/31 00:37:47;;;;;;;1999.90;999.90;;;10.20;99.90;;;;;;5051166;28;20451;-82
2023/10/31 00:40:13;;;;;;;1999.90;999.90;;;10.20;99.90;;;;;;5046317;28;20047;-69
2023/10/31 00:42:41;;;;;;;1999.90;999.90;;;10.20;99.90;;;;;;5046765;28;20431;-69
2023/10/31 00:45:07;;;;;;;1999.90;999.90;;;10.20;99.90;;;;;;5053617;28;20114;-69
2023/10/31 00:47:33;;;;;;;1999.90;999.90;;;10.10;99.90;;;;;;5052473;28;20028;-69
2023/10/31 00:49:59;;;;;;;1999.90;999.90;;;10.20;99.90;;;;;;5048156;28;20797;-69
2023/10/31 00:52:24;;;;;;;1999.90;999.90;;;10.20;99.90;;;;;;5053972;28;20056;-70
2023/10/31 00:54:50;;;;;;;1999.90;999.90;;;10.20;99.90;;;;;;5053270;28;20033;-69
2023/10/31 00:57:16;;;;;;;1999.90;999.90;;;10.20;99.90;;;;;;5053087;28;20431;-69
2023/10/31 00:59:41;;;;;;;1999.90;999.90;;;10.20;99.90;;;;;;5048269;28;20029;-69
2023/10/31 01:02:07;;;;;;;1999.90;999.90;;;10.20;99.90;;;;;;5052407;28;20415;-69
2023/10/31 01:04:33;;;;;;;1999.90;999.90;;;10.20;99.90;;;;;;5052780;28;20320;-69
2023/10/31 01:06:59;;;;;;;1999.90;999.90;;;10.20;99.90;;;;;;5052221;28;20025;-69
2023/10/31 01:09:24;;;;;;;1999.90;999.90;;;10.20;99.90;;;;;;5041876;28;20028;-69
2023/10/31 01:11:50;;;;;;;1999.90;999.90;;;10.20;99.90;;;;;;5046374;28;20060;-81
2023/10/31 01:14:16;;;;;;;1999.90;999.90;;;10.30;99.90;;;;;;5053437;28;20075;-69
2023/10/31 01:16:41;;;;;;;1999.90;999.90;;;10.30;99.90;;;;;;5044411;28;20432;-69
2023/10/31 01:19:07;;;;;;;1999.90;999.90;;;10.30;99.90;;;;;;5042693;28;20025;-83
2023/10/31 01:21:33;;;;;;;1999.90;999.90;;;10.40;99.90;;;;;;5047147;28;20115;-69
2023/10/31 01:23:59;;;;;;;1999.90;999.90;;;10.40;99.90;;;;;;5052290;28;20097;-69
2023/10/31 01:26:25;;;;;;;1999.90;999.90;;;10.50;99.90;;;;;;5053801;28;20410;-69
2023/10/31 01:28:51;;;;;;;1999.90;999.90;;;10.40;99.90;;;;;;5048757;28;20104;-91
2023/10/31 01:31:17;;;;;;;1999.90;999.90;;;10.40;99.90;;;;;;5047813;28;20507;-68
2023/10/31 01:33:43;;;;;;;1999.90;999.90;;;10.40;99.90;;;;;;5053142;28;20052;-69
2023/10/31 01:36:10;;;;;;;1999.90;999.90;;;10.40;99.90;;;;;;5053207;28;20107;-68
2023/10/31 01:38:36;;;;;;;1999.90;999.90;;;10.50;99.90;;;;;;5051918;28;20323;-69
2023/10/31 01:41:02;;;;;;;1999.90;999.90;;;10.40;99.90;;;;;;5051852;28;20021;-70
2023/10/31 01:43:32;;;;;;;1999.90;999.90;;;10.50;99.90;;;;;;5047074;28;20084;-69
2023/10/31 01:45:58;;;;;;;1999.90;999.90;;;10.40;99.90;;;;;;5057056;28;20033;-70
2023/10/31 01:48:26;;;;;;;1999.90;999.90;;;10.50;99.90;;;;;;5054270;28;20028;-70
2023/10/31 01:50:52;;;;;;;1999.90;999.90;;;10.50;99.90;;;;;;5054732;28;20381;-82
2023/10/31 01:53:18;;;;;;;1999.90;999.90;;;10.50;99.90;;;;;;5057238;28;20104;-69
2023/10/31 01:55:45;;;;;;;1999.90;999.90;;;10.50;99.90;;;;;;5057245;28;20112;-69
2023/10/31 01:58:12;;;;;;;1999.90;999.90;;;10.50;99.90;;;;;;5051975;28;20443;-69
2023/10/31 02:00:43;;;;;;;1999.90;999.90;;;10.50;99.90;;;;;;5054265;28;20111;-70
2023/10/31 02:03:09;;;;;;;1999.90;999.90;;;10.50;99.90;;;;;;5054312;28;20037;-70
2023/10/31 02:05:35;;;;;;;1999.90;999.90;;;10.50;99.90;;;;;;5054376;28;20029;-70
2023/10/31 02:08:01;;;;;;;1999.90;999.90;;;10.50;99.90;;;;;;5047663;28;20037;-70
2023/10/31 02:10:27;;;;;;;1999.90;999.90;;;10.50;99.90;;;;;;5045976;28;20017;-70
2023/10/31 02:12:53;;;;;;;1999.90;999.90;;;10.50;99.90;;;;;;5041463;28;20040;-70
2023/10/31 02:15:18;;;;;;;1999.90;999.90;;;10.40;99.90;;;;;;5053378;28;20499;-83
2023/10/31 02:17:44;;;;;;;1999.90;999.90;;;10.50;99.90;;;;;;5049531;28;20454;-80
2023/10/31 02:20:10;;;;;;;1999.90;999.90;;;10.50;99.90;;;;;;5054299;28;20366;-70
2023/10/31 02:22:36;;;;;;;1999.90;999.90;;;10.50;99.90;;;;;;5055310;28;20025;-69
2023/10/31 02:25:02;;;;;;;1999.90;999.90;;;10.50;99.90;;;;;;5056324;28;20079;-71
2023/10/31 02:27:27;;;;;;;1999.90;999.90;;;10.50;99.90;;;;;;5045916;28;20025;-70
2023/10/31 02:29:53;;;;;;;1999.90;999.90;;;10.50;99.90;;;;;;5056190;28;20033;-69
2023/10/31 02:32:19;;;;;;;1999.90;999.90;;;10.50;99.90;;;;;;5056018;28;20036;-70
2023/10/31 02:34:45;;;;;;;1999.90;999.90;;;10.50;99.90;;;;;;5043456;28;20044;-71
2023/10/31 02:37:11;;;;;;;1999.90;999.90;;;10.50;99.90;;;;;;5054132;28;20029;-70
2023/10/31 02:39:37;;;;;;;1999.90;999.90;;;10.50;99.90;;;;;;5051541;28;20037;-70
2023/10/31 02:42:03;;;;;;;1999.90;999.90;;;10.50;99.90;;;;;;5047076;28;20047;-70
2023/10/31 02:44:29;;;;;;;1999.90;999.90;;;10.50;99.90;;;;;;5054017;28;20032;-69
2023/10/31 02:46:55;;;;;;;1999.90;999.90;;;10.50;99.90;;;;;;5048179;28;20408;-70
2023/10/31 02:49:21;;;;;;;1999.90;999.90;;;10.50;99.90;;;;;;5052741;28;20025;-70
2023/10/31 02:51:47;;;;;;;1999.90;999.90;;;10.50;99.90;;;;;;5051064;28;20162;-70
2023/10/31 02:54:14;;;;;;;1999.90;999.90;;;10.50;99.90;;;;;;5053826;28;20056;-69
2023/10/31 02:56:40;;;;;;;1999.90;999.90;;;10.50;99.90;;;;;;5056000;28;20021;-70
2023/10/31 02:59:05;;;;;;;1999.90;999.90;;;10.50;99.90;;;;;;5051883;28;20021;-78
2023/10/31 03:01:32;;;;;;;1999.90;999.90;;;10.40;99.90;;;;;;5055494;28;20021;-70
2023/10/31 03:03:57;;;;;;;1999.90;999.90;;;10.40;99.90;;;;;;5055347;28;20028;-70
2023/10/31 03:06:23;;;;;;;1999.90;999.90;;;10.40;99.90;;;;;;5055889;28;20051;-69
2023/10/31 03:08:49;;;;;;;1999.90;999.90;;;10.40;99.90;;;;;;5053170;28;20025;-70
2023/10/31 03:11:22;;;;;;;1999.90;999.90;;;10.40;99.90;;;;;;5050183;28;20071;-69
2023/10/31 03:13:49;;;;;;;1999.90;999.90;;;10.30;99.90;;;;;;5054924;28;20343;-69
2023/10/31 03:16:15;;;;;;;1999.90;999.90;;;10.30;99.90;;;;;;5052216;28;20029;-70
2023/10/31 03:18:40;;;;;;;1999.90;999.90;;;10.30;99.90;;;;;;5050605;28;20114;-70
2023/10/31 03:21:06;;;;;;;1999.90;999.90;;;10.30;99.90;;;;;;5047942;28;20035;-69
2023/10/31 03:23:32;;;;;;;1999.90;999.90;;;10.30;99.90;;;;;;5055091;28;20029;-69
2023/10/31 03:25:57;;;;;;;1999.90;999.90;;;10.30;99.90;;;;;;5052621;28;20021;-70
2023/10/31 03:28:24;;;;;;;1999.90;999.90;;;10.30;99.90;;;;;;5052066;28;20147;-69
2023/10/31 03:30:50;;;;;;;1999.90;999.90;;;10.20;99.90;;;;;;5054284;28;20025;-83
2023/10/31 03:33:16;;;;;;;1999.90;999.90;;;10.20;99.90;;;;;;5049563;28;20025;-82
2023/10/31 03:35:42;;;;;;;1999.90;999.90;;;10.20;99.90;;;;;;5050716;28;20435;-69
2023/10/31 03:38:08;;;;;;;1999.90;999.90;;;10.20;99.90;;;;;;5049244;28;20500;-69
2023/10/31 03:40:34;;;;;;;1999.90;999.90;;;10.20;99.90;;;;;;5055068;28;20025;-69
2023/10/31 03:43:00;;;;;;;1999.90;999.90;;;10.20;99.90;;;;;;5053272;28;20028;-70
2023/10/31 03:45:25;;;;;;;1999.90;999.90;;;10.20;99.90;;;;;;5055327;28;20020;-70
2023/10/31 03:47:51;;;;;;;1999.90;999.90;;;10.20;99.90;;;;;;5053859;28;20033;-83
2023/10/31 03:50:17;;;;;;;1999.90;999.90;;;10.20;99.90;;;;;;5054230;28;20331;-86
2023/10/31 03:52:42;;;;;;;1999.90;999.90;;;10.20;99.90;;;;;;5055273;28;20024;-87
2023/10/31 03:55:08;;;;;;;1999.90;999.90;;;10.20;99.90;;;;;;5050870;28;20388;-69
2023/10/31 03:57:34;;;;;;;1999.90;999.90;;;10.20;99.90;;;;;;5039749;28;20053;-69
2023/10/31 04:00:00;;;;;;;1999.90;999.90;;;10.20;99.90;;;;;;5046565;28;20497;-91
2023/10/31 04:02:26;;;;;;;1999.90;999.90;;;10.20;99.90;;;;;;5049340;28;20481;-70
2023/10/31 04:04:51;;;;;;;1999.90;999.90;;;10.20;99.90;;;;;;5054997;28;20258;-89
2023/10/31 04:07:17;;;;;;;1999.90;999.90;;;10.30;99.90;;;;;;5050797;28;20040;-69
2023/10/31 04:09:43;;;;;;;1999.90;999.90;;;10.30;99.90;;;;;;5038980;28;20029;-70
2023/10/31 04:12:09;;;;;;;1999.90;999.90;;;10.30;99.90;;;;;;5044583;28;20060;-69
2023/10/31 04:14:35;;;;;;;1999.90;999.90;;;10.40;99.90;;;;;;5043986;28;20029;-69
2023/10/31 04:17:00;;;;;;;1999.90;999.90;;;10.40;99.90;;;;;;5036305;28;20037;-77
2023/10/31 04:19:26;;;;;;;1999.90;999.90;;;10.40;99.90;;;;;;5042850;28;20424;-69
2023/10/31 04:21:54;;;;;;;1999.90;999.90;;;10.40;99.90;;;;;;5042865;28;20036;-69
2023/10/31 04:24:20;;;;;;;1999.90;999.90;;;10.40;99.90;;;;;;5045919;28;20068;-69
2023/10/31 04:26:45;;;;;;;1999.90;999.90;;;10.40;99.90;;;;;;5042594;28;20439;-69
2023/10/31 04:29:11;;;;;;;1999.90;999.90;;;10.40;99.90;;;;;;5050323;28;20045;-69
2023/10/31 04:31:37;;;;;;;1999.90;999.90;;;10.40;99.90;;;;;;5046885;28;20092;-69
2023/10/31 04:34:02;;;;;;;1999.90;999.90;;;10.50;99.90;;;;;;5049818;28;20040;-69
2023/10/31 04:36:28;;;;;;;1999.90;999.90;;;10.50;99.90;;;;;;5044985;28;20025;-69
2023/10/31 04:38:54;;;;;;;1999.90;999.90;;;10.50;99.90;;;;;;5045129;28;20063;-69
2023/10/31 04:41:20;;;;;;;1999.90;999.90;;;10.50;99.90;;;;;;5045764;28;20043;-69
2023/10/31 04:43:46;;;;;;;1999.90;999.90;;;10.50;99.90;;;;;;5042706;28;20108;-87
2023/10/31 04:46:11;;;;;;;1999.90;999.90;;;10.50;99.90;;;;;;5046179;28;20025;-70
2023/10/31 04:48:37;;;;;;;1999.90;999.90;;;10.40;99.90;;;;;;5052018;28;20028;-69
2023/10/31 04:51:03;;;;;;;1999.90;999.90;;;10.40;99.90;;;;;;5047644;28;20045;-70
2023/10/31 04:53:29;;;;;;;1999.90;999.90;;;10.40;99.90;;;;;;5050260;28;20028;-69
2023/10/31 04:55:55;;;;;;;1999.90;999.90;;;10.40;99.90;;;;;;5050081;28;20470;-69
2023/10/31 04:58:20;;;;;;;1999.90;999.90;;;10.40;99.90;;;;;;5043854;28;20068;-69
2023/10/31 05:00:47;;;;;;;1999.90;999.90;;;10.40;99.90;;;;;;5047602;28;20037;-83
2023/10/31 05:03:12;;;;;;;1999.90;999.90;;;10.30;99.90;;;;;;5045078;28;20091;-70
2023/10/31 05:05:38;;;;;;;1999.90;999.90;;;10.40;99.90;;;;;;5048450;28;20448;-69
2023/10/31 05:08:04;;;;;;;1999.90;999.90;;;10.40;99.90;;;;;;5046083;28;20059;-70
2023/10/31 05:10:30;;;;;;;1999.90;999.90;;;10.40;99.90;;;;;;5045335;28;20026;-70
2023/10/31 05:12:56;;;;;;;1999.90;999.90;;;10.40;99.90;;;;;;5038048;28;20046;-71
2023/10/31 05:15:22;;;;;;;1999.90;999.90;;;10.40;99.90;;;;;;5047873;28;20036;-80
2023/10/31 05:17:48;;;;;;;1999.90;999.90;;;10.40;99.90;;;;;;5044435;28;20033;-71
2023/10/31 05:20:14;;;;;;;1999.90;999.90;;;10.40;99.90;;;;;;5040017;28;20021;-71
2023/10/31 05:22:41;;;;;;;1999.90;999.90;;;10.40;99.90;;;;;;5041914;28;20037;-71
2023/10/31 05:25:07;;;;;;;1999.90;999.90;;;10.30;99.90;;;;;;5050877;28;20359;-69
2023/10/31 05:27:32;;;;;;;1999.90;999.90;;;10.40;99.90;;;;;;5046208;28;20021;-85
2023/10/31 05:29:58;;;;;;;1999.90;999.90;;;10.40;99.90;;;;;;5049950;28;20082;-70
2023/10/31 05:32:24;;;;;;;1999.90;999.90;;;10.40;99.90;;;;;;5046238;28;20427;-70
2023/10/31 05:34:49;;;;;;;1999.90;999.90;;;10.40;99.90;;;;;;5040707;28;20168;-70
2023/10/31 05:37:15;;;;;;;1999.90;999.90;;;10.40;99.90;;;;;;5048767;28;20029;-70
2023/10/31 05:39:41;;;;;;;1999.90;999.90;;;10.40;99.90;;;;;;5039000;28;20476;-70
2023/10/31 05:42:06;;;;;;;1999.90;999.90;;;10.30;99.90;;;;;;5037487;28;20041;-70
2023/10/31 05:44:32;;;;;;;1999.90;999.90;;;10.30;99.90;;;;;;5052684;28;20036;-81
2023/10/31 05:46:58;;;;;;;1999.90;999.90;;;10.30;99.90;;;;;;5052122;28;20024;-70
2023/10/31 05:49:24;;;;;;;1999.90;999.90;;;10.30;99.90;;;;;;5049863;28;21856;-70
2023/10/31 05:51:53;;;;;;;1999.90;999.90;;;10.30;99.90;;;;;;5050145;28;20032;-70
2023/10/31 05:54:19;;;;;;;1999.90;999.90;;;10.30;99.90;;;;;;5051151;28;20029;-70
2023/10/31 05:56:45;;;;;;;1999.90;999.90;;;10.30;99.90;;;;;;5050339;28;20033;-81
2023/10/31 05:59:11;;;;;;;1999.90;999.90;;;10.30;99.90;;;;;;5049648;28;20022;-70
2023/10/31 06:01:37;;;;;;;1999.90;999.90;;;10.20;99.90;;;;;;5044748;28;20029;-82
2023/10/31 06:04:03;;;;;;;1999.90;999.90;;;10.30;99.90;;;;;;5042286;28;20072;-69
2023/10/31 06:06:33;;;;;;;1999.90;999.90;;;10.20;99.90;;;;;;5045484;28;20104;-70
2023/10/31 06:08:59;;;;;;;1999.90;999.90;;;10.20;99.90;;;;;;5042951;28;20258;-69
2023/10/31 06:11:25;;;;;;;1999.90;999.90;;;10.20;99.90;;;;;;5048276;28;20017;-70
2023/10/31 06:13:51;;;;;;;1999.90;999.90;;;10.20;99.90;;;;;;5047250;28;20055;-69
2023/10/31 06:16:17;;;;;;;1999.90;999.90;;;10.20;99.90;;;;;;5049169;28;20033;-71
2023/10/31 06:18:42;;;;;;;1999.90;999.90;;;10.20;99.90;;;;;;5042046;28;20045;-70
2023/10/31 06:21:11;;;;;;;1999.90;999.90;;;10.10;99.90;;;;;;5044653;28;20033;-69
2023/10/31 06:23:38;;;;;;;1999.90;999.90;;;10.20;99.90;;;;;;5045258;28;20108;-70
2023/10/31 06:26:04;;;;;;;1999.90;999.90;;;10.10;99.90;;;;;;5040461;28;20435;-70
2023/10/31 06:28:30;;;;;;;1999.90;999.90;;;10.10;99.90;;;;;;5047173;28;20324;-69
2023/10/31 06:30:55;;;;;;;1999.90;999.90;;;10.10;99.90;;;;;;5038744;28;20032;-69
2023/10/31 06:33:21;;;;;;;1999.90;999.90;;;10.10;99.90;;;;;;5049684;28;20043;-70
2023/10/31 06:35:46;;;;;;;1999.90;999.90;;;10.10;99.90;;;;;;5044000;28;20372;-70
2023/10/31 06:38:13;;;;;;;1999.90;999.90;;;10.10;99.90;;;;;;5050681;28;20110;-70
2023/10/31 06:40:38;;;;;;;1999.90;999.90;;;10.00;99.90;;;;;;5048513;28;20047;-69
2023/10/31 06:43:04;;;;;;;1999.90;999.90;;;10.00;99.90;;;;;;5048325;28;20033;-70
2023/10/31 06:45:29;;;;;;;1999.90;999.90;;;10.10;99.90;;;;;;5056486;28;20033;-70
2023/10/31 06:47:55;;;;;;;1999.90;999.90;;;10.00;99.90;;;;;;5052598;28;20021;-69
2023/10/31 06:50:21;;;;;;;1999.90;999.90;;;10.00;99.90;;;;;;5048151;28;20117;-82
2023/10/31 06:52:46;;;;;;;1999.90;999.90;;;10.00;99.90;;;;;;5051144;28;20326;-69
2023/10/31 06:55:12;;;;;;;1999.90;999.90;;;10.10;99.90;;;;;;5044974;28;20029;-70
2023/10/31 06:57:38;;;;;;;1999.90;999.90;;;10.10;99.90;;;;;;5052213;28;20051;-70
2023/10/31 07:00:08;;;;;;;1999.90;999.90;;;10.10;99.90;;;;;;5045427;28;20079;-70
2023/10/31 07:02:33;;;;;;;1999.90;999.90;;;10.10;99.90;;;;;;5051581;28;20032;-69
2023/10/31 07:04:59;;;;;;;1999.90;999.90;;;10.10;99.90;;;;;;5054659;28;20040;-69
2023/10/31 07:07:25;;;;;;;1999.90;999.90;;;10.20;99.90;;;;;;5043999;28;20022;-69
2023/10/31 07:09:50;;;;;;;1999.90;999.90;;;10.20;99.90;;;;;;5055006;28;20021;-79
2023/10/31 07:12:16;;;;;;;1999.90;999.90;;;10.20;99.90;;;;;;5042302;28;20029;-71
2023/10/31 07:14:42;;;;;;;1999.90;999.90;;;10.30;99.90;;;;;;5050631;28;20028;-79
2023/10/31 07:17:08;;;;;;;1999.90;999.90;;;10.30;99.90;;;;;;5049035;28;20033;-70
2023/10/31 07:19:41;;;;;;;1999.90;999.90;;;10.30;99.90;;;;;;5055270;28;20029;-71
2023/10/31 07:22:07;;;;;;;1999.90;999.90;;;10.30;99.90;;;;;;5045582;28;20033;-70
2023/10/31 07:24:33;;;;;;;1999.90;999.90;;;10.30;99.90;;;;;;5046167;28;20416;-70
2023/10/31 07:26:59;;;;;;;1999.90;999.90;;;10.30;99.90;;;;;;5053938;28;20033;-70
2023/10/31 07:29:25;;;;;;;1999.90;999.90;;;10.40;99.90;;;;;;5048702;28;20032;-70
2023/10/31 07:31:50;;;;;;;1999.90;999.90;;;10.40;99.90;;;;;;5052260;28;20415;-82
2023/10/31 07:34:16;;;;;;;1999.90;999.90;;;10.50;99.90;;;;;;5051771;28;20025;-70
2023/10/31 07:36:42;;;;;;;1999.90;999.90;;;10.50;99.90;;;;;;5052982;28;20052;-79
2023/10/31 07:39:08;;;;;;;1999.90;999.90;;;10.60;99.90;;;;;;5052577;28;20021;-70
2023/10/31 07:41:33;;;;;;;1999.90;999.90;;;10.60;99.90;;;;;;5044278;28;20422;-70
2023/10/31 07:43:59;;;;;;;1999.90;999.90;;;10.60;99.90;;;;;;5048003;28;20782;-70
2023/10/31 07:46:25;;;;;;;1999.90;999.90;;;10.60;99.90;;;;;;5047221;28;20442;-70
2023/10/31 07:48:51;;;;;;;1999.90;999.90;;;10.60;99.90;;;;;;5047406;28;20025;-84
2023/10/31 07:51:16;;;;;;;1999.90;999.90;;;10.60;99.90;;;;;;5049222;28;20124;-70
2023/10/31 07:53:42;;;;;;;1999.90;999.90;;;10.70;99.90;;;;;;5047295;28;20068;-84
2023/10/31 07:56:18;;;;;;;1999.90;999.90;;;10.70;99.90;;;;;;5043037;28;20083;-70
2023/10/31 07:58:44;;;;;;;1999.90;999.90;;;10.70;99.90;;;;;;5047551;28;20102;-70
2023/10/31 08:01:10;;;;;;;1999.90;999.90;;;10.70;99.90;;;;;;5047312;28;20071;-69
2023/10/31 08:03:39;;;;;;;1999.90;999.90;;;10.70;99.90;;;;;;5048510;28;20025;-70
2023/10/31 08:06:07;;;;;;;1999.90;999.90;;;10.70;99.90;;;;;;5046951;28;20424;-70
2023/10/31 08:08:33;;;;;;;1999.90;999.90;;;10.90;99.90;;;;;;5052969;28;20029;-69
2023/10/31 08:10:59;;;;;;;1999.90;999.90;;;11.00;99.90;;;;;;5046763;28;20024;-70
2023/10/31 08:13:25;;;;;;;1999.90;999.90;;;11.20;99.90;;;;;;5049136;28;20036;-70
2023/10/31 08:15:50;;;;;;;1999.90;999.90;;;11.20;99.90;;;;;;5048459;28;20024;-70
2023/10/31 08:18:16;;;;;;;1999.90;999.90;;;11.30;99.90;;;;;;5049462;28;20036;-80
2023/10/31 08:20:43;;;;;;;1999.90;999.90;;;11.30;99.90;;;;;;5041125;28;20108;-70
2023/10/31 08:23:09;;;;;;;1999.90;999.90;;;11.30;99.90;;;;;;5041684;28;20446;-70
2023/10/31 08:25:34;;;;;;;1999.90;999.90;;;11.30;99.90;;;;;;5044455;28;20064;-70
2023/10/31 08:28:00;;;;;;;1999.90;999.90;;;11.40;99.90;;;;;;5041715;28;20047;-70
2023/10/31 08:30:26;;;;;;;1999.90;999.90;;;11.50;99.90;;;;;;5049515;28;20396;-70
2023/10/31 08:32:51;;;;;;;1999.90;999.90;;;11.60;99.90;;;;;;5040051;28;20037;-69
2023/10/31 08:35:17;;;;;;;1999.90;999.90;;;11.60;99.90;;;;;;5046834;28;20040;-82
2023/10/31 08:37:43;;;;;;;1999.90;999.90;;;11.50;99.90;;;;;;5040899;28;20120;-69
2023/10/31 08:40:10;;;;;;;1999.90;999.90;;;11.50;99.90;;;;;;5045991;28;20082;-70
2023/10/31 08:42:36;;;;;;;1999.90;999.90;;;11.50;99.90;;;;;;5043064;28;20037;-70
2023/10/31 08:45:01;;;;;;;1999.90;999.90;;;11.60;99.90;;;;;;5052585;28;20328;-84
2023/10/31 08:47:28;;;;;;;1999.90;999.90;;;11.70;99.90;;;;;;5053701;28;20028;-70
2023/10/31 08:49:53;;;;;;;1999.90;999.90;;;11.70;99.90;;;;;;5053192;28;20079;-70
2023/10/31 08:52:19;;;;;;;1999.90;999.90;;;11.60;99.90;;;;;;5053225;28;20079;-70
2023/10/31 08:54:44;;;;;;;1999.90;999.90;;;11.60;99.90;;;;;;5053379;28;20041;-70
2023/10/31 08:57:10;;;;;;;1999.90;999.90;;;11.60;99.90;;;;;;5052738;28;20025;-69
2023/10/31 08:59:36;;;;;;;1999.90;999.90;;;11.70;99.90;;;;;;5053972;28;20025;-69
2023/10/31 09:02:02;;;;;;;1999.90;999.90;;;11.80;99.90;;;;;;5053235;28;20024;-83
2023/10/31 09:04:27;;;;;;;1999.90;999.90;;;11.80;99.90;;;;;;5052543;28;20116;-71
2023/10/31 09:06:53;;;;;;;1999.90;999.90;;;11.90;99.90;;;;;;5050982;28;20087;-69
2023/10/31 09:09:19;;;;;;;1999.90;999.90;;;12.00;99.90;;;;;;5057548;28;20025;-69
2023/10/31 09:11:44;;;;;;;1999.90;999.90;;;12.10;99.90;;;;;;5053345;28;20025;-70
2023/10/31 09:14:10;;;;;;;1999.90;999.90;;;12.10;99.90;;;;;;5047832;28;20104;-71
2023/10/31 09:16:36;;;;;;;1999.90;999.90;;;12.20;99.90;;;;;;5051015;28;20032;-69
2023/10/31 09:19:02;;;;;;;1999.90;999.90;;;12.20;99.90;;;;;;5053377;28;20027;-82
2023/10/31 09:21:27;;;;;;;1999.90;999.90;;;12.20;99.90;;;;;;5052447;28;20028;-70
2023/10/31 09:23:53;;;;;;;1999.90;999.90;;;12.30;99.90;;;;;;5053094;28;20040;-70
2023/10/31 09:26:20;;;;;;;1999.90;999.90;;;12.40;99.90;;;;;;5052746;28;20445;-71
2023/10/31 09:28:49;;;;;;;1999.90;999.90;;;12.40;99.90;;;;;;5053056;28;20492;-70
2023/10/31 09:31:18;;;;;;;1999.90;999.90;;;12.50;99.90;;;;;;5053099;28;20107;-70
2023/10/31 09:33:45;;;;;;;1999.90;999.90;;;12.60;99.90;;;;;;5053801;28;20036;-70
2023/10/31 09:36:11;;;;;;;1999.90;999.90;;;12.70;99.90;;;;;;5051980;28;20024;-81
2023/10/31 09:38:37;;;;;;;1999.90;999.90;;;12.80;99.90;;;;;;5052327;28;20029;-70
2023/10/31 09:41:03;;;;;;;1999.90;999.90;;;12.80;99.90;;;;;;5051722;28;20082;-69
2023/10/31 09:43:29;;;;;;;1999.90;999.90;;;12.90;99.90;;;;;;5053493;28;20143;-70
2023/10/31 09:45:55;;;;;;;1999.90;999.90;;;12.90;99.90;;;;;;5053187;28;20407;-70
2023/10/31 09:48:21;;;;;;;1999.90;999.90;;;13.00;99.90;;;;;;5053532;28;20029;-69
2023/10/31 09:50:47;;;;;;;1999.90;999.90;;;13.00;99.90;;;;;;5051038;28;20049;-70
2023/10/31 09:53:16;;;;;;;1999.90;999.90;;;13.10;99.90;;;;;;5051631;28;20083;-81
2023/10/31 09:55:43;;;;;;;1999.90;999.90;;;13.20;99.90;;;;;;5051246;28;20029;-70
2023/10/31 09:58:09;;;;;;;1999.90;999.90;;;13.20;99.90;;;;;;5051851;28;20029;-71
2023/10/31 10:00:36;;;;;;;1999.90;999.90;;;13.30;99.90;;;;;;5053128;28;20044;-70
2023/10/31 10:03:03;;;;;;;1999.90;999.90;;;13.30;99.90;;;;;;5052202;28;20025;-70
2023/10/31 10:05:32;;;;;;;1999.90;999.90;;;13.40;99.90;;;;;;5056396;28;20029;-70
2023/10/31 10:07:57;;;;;;;1999.90;999.90;;;13.50;99.90;;;;;;5055869;28;20075;-69
2023/10/31 10:10:24;;;;;;;1999.90;999.90;;;13.50;99.90;;;;;;5056313;28;20029;-87
2023/10/31 10:12:52;;;;;;;1999.90;999.90;;;13.60;99.90;;;;;;5057054;28;20047;-69
2023/10/31 10:15:17;;;;;;;1999.90;999.90;;;13.60;99.90;;;;;;5056664;28;20086;-82
2023/10/31 10:17:50;;;;;;;1999.90;999.90;;;13.70;99.90;;;;;;5056868;28;20427;-69
2023/10/31 10:20:15;;;;;;;1999.90;999.90;;;13.70;99.90;;;;;;5053358;28;20090;-87
2023/10/31 10:22:42;;;;;;;1999.90;999.90;;;13.90;99.90;;;;;;5055762;28;20033;-70
2023/10/31 10:25:11;;;;;;;1999.90;999.90;;;14.00;99.90;;;;;;5056741;28;20029;-69
2023/10/31 10:27:37;;;;;;;1999.90;999.90;;;14.00;99.90;;;;;;5054984;28;20029;-71
2023/10/31 10:30:05;;;;;;;1999.90;999.90;;;14.10;99.90;;;;;;5055671;28;20028;-69
2023/10/31 10:32:30;;;;;;;1999.90;999.90;;;14.20;99.90;;;;;;5056140;28;20265;-69
2023/10/31 10:34:56;;;;;;;1999.90;999.90;;;14.30;99.90;;;;;;5054625;28;20037;-70
2023/10/31 10:37:23;;;;;;;1999.90;999.90;;;14.40;99.90;;;;;;5056071;28;20036;-70
2023/10/31 10:39:55;;;;;;;1999.90;999.90;;;14.50;99.90;;;;;;5056723;28;20058;-69
2023/10/31 10:42:31;;;;;;;1999.90;999.90;;;14.70;99.90;;;;;;5056080;28;20033;-88
2023/10/31 10:45:01;;;;;;;1999.90;999.90;;;14.90;99.90;;;;;;5052872;28;20344;-71
2023/10/31 10:47:28;;;;;;;1999.90;999.90;;;14.80;99.90;;;;;;5056099;28;20021;-70
2023/10/31 10:49:57;;;;;;;1999.90;999.90;;;14.60;99.90;;;;;;5055755;28;20045;-73
2023/10/31 10:52:35;;;;;;;1999.90;999.90;;;14.30;99.90;;;;;;5056291;28;20048;-70
2023/10/31 10:55:35;;;;;;;1999.90;999.90;;;14.10;99.90;;;;;;5055966;28;20062;-70
2023/10/31 10:58:13;;;;;;;1999.90;999.90;;;13.90;99.90;;;;;;5050569;28;20340;-70
2023/10/31 11:00:40;;;;;;;1999.90;999.90;;;13.70;99.90;;;;;;5045018;28;20064;-70
2023/10/31 11:03:06;;;;;;;1999.90;999.90;;;13.50;99.90;;;;;;5054978;28;20363;-70
2023/10/31 11:05:32;;;;;;;;;;;13.40;99.90;;;;;;5055742;28;20309;-70
2023/10/31 11:07:59;;;;;;;1999.90;999.90;;;13.30;99.90;;;;;;5056364;28;19916;-70
2023/10/31 11:10:27;;;;;;;1999.90;999.90;;;13.20;99.90;;;;;;5055264;28;20104;-70
2023/10/31 11:12:53;;;;;;;1999.90;999.90;;;13.20;99.90;;;;;;5056160;28;20158;-70
2023/10/31 11:15:19;;;;;;;1999.90;999.90;;;13.10;99.90;;;;;;5054515;28;20028;-92
2023/10/31 11:17:46;;;;;;;1999.90;999.90;;;13.00;99.90;;;;;;5055914;28;20041;-70
2023/10/31 11:20:15;;;;;;;1999.90;999.90;;;12.90;99.90;;;;;;5055827;28;20017;-70
2023/10/31 11:22:45;;;;;;;1999.90;999.90;;;12.90;99.90;;;;;;5055318;28;20041;-70
2023/10/31 11:25:20;;;;;;;1999.90;999.90;;;12.80;99.90;;;;;;5055866;28;20021;-71
2023/10/31 11:27:45;;;;;;;1999.90;999.90;;;12.80;99.90;;;;;;5055923;28;20036;-70
2023/10/31 11:30:33;;;;;;;1999.90;999.90;;;12.70;99.90;;;;;;5055432;28;20018;-70
2023/10/31 11:33:01;;;;;;;1999.90;999.90;;;12.70;99.90;;;;;;5048796;28;20029;-70
2023/10/31 11:35:30;;;;;;;1999.90;999.90;;;12.70;99.90;;;;;;5055323;28;20032;-71
2023/10/31 11:38:04;;;;;;;1999.90;999.90;;;12.70;99.90;;;;;;5053580;28;20415;-70
2023/10/31 11:40:30;;;;;;;1999.90;999.90;;;12.80;99.90;;;;;;5055301;28;20116;-70
2023/10/31 11:43:03;;;;;;;1999.90;999.90;;;12.80;99.90;;;;;;5052492;28;20100;-70
2023/10/31 11:45:47;;;;;;;1999.90;999.90;;;12.80;99.90;;;;;;5050453;28;20031;-71
2023/10/31 11:48:13;;;;;;;1999.90;999.90;;;12.80;99.90;;;;;;5051156;28;20024;-70
2023/10/31 11:50:39;;;;;;;1999.90;999.90;;;12.80;99.90;;;;;;5054235;28;20033;-93
2023/10/31 11:53:11;;;;;;;1999.90;999.90;;;12.90;99.90;;;;;;5054594;28;20024;-70
2023/10/31 11:55:41;;;;;;;1999.90;999.90;;;13.00;99.90;;;;;;5053722;28;20029;-70